sensor_id;sensor_type;location;lat;lon;timestamp;P1;durP1;ratioP1;P2;durP2;ratioP2
43248;SDS011;29216;51.248;6.808;2024-02-15T00:00:37;14.40;;;6.13;;
43248;SDS011;29216;51.248;6.808;2024-02-15T00:03:03;12.50;;;5.90;;
43248;SDS011;29216;51.248;6.808;2024-02-15T00:05:31;12.32;;;6.68;;
43248;SDS011;29216;51.248;6.808;2024-02-15T00:07:57;17.63;;;6.85;;
43248;SDS011;29216;51.248;6.808;2024-02-15T00:10:24;11.25;;;5.82;;
43248;SDS011;29216;51.248;6.808;2024-02-15T00:12:50;13.40;;;6.13;;
43248;SDS011;29216;51.248;6.808;2024-02-15T00:15:16;16.92;;;6.32;;
43248;SDS011;29216;51.248;6.808;2024-02-15T00:17:44;12.85;;;5.63;;
43248;SDS011;29216;51.248;6.808;2024-02-15T00:20:11;8.55;;;5.28;;
43248;SDS011;29216;51.248;6.808;2024-02-15T00:22:42;7.85;;;5.47;;
43248;SDS011;29216;51.248;6.808;2024-02-15T00:25:08;16.52;;;6.18;;
43248;SDS011;29216;51.248;6.808;2024-02-15T00:27:36;12.93;;;5.28;;
43248;SDS011;29216;51.248;6.808;2024-02-15T00:30:02;12.32;;;5.82;;
43248;SDS011;29216;51.248;6.808;2024-02-15T00:32:28;10.25;;;5.43;;
43248;SDS011;29216;51.248;6.808;2024-02-15T00:34:54;13.10;;;5.93;;
43248;SDS011;29216;51.248;6.808;2024-02-15T00:37:20;7.90;;;5.20;;
43248;SDS011;29216;51.248;6.808;2024-02-15T00:39:46;10.95;;;5.40;;
43248;SDS011;29216;51.248;6.808;2024-02-15T00:42:12;12.68;;;5.70;;
43248;SDS011;29216;51.248;6.808;2024-02-15T00:44:39;17.70;;;6.82;;
43248;SDS011;29216;51.248;6.808;2024-02-15T00:47:04;10.10;;;5.60;;
43248;SDS011;29216;51.248;6.808;2024-02-15T00:49:31;11.38;;;5.45;;
43248;SDS011;29216;51.248;6.808;2024-02-15T00:51:57;11.02;;;5.78;;
43248;SDS011;29216;51.248;6.808;2024-02-15T00:54:23;8.38;;;5.22;;
43248;SDS011;29216;51.248;6.808;2024-02-15T00:56:49;12.32;;;5.63;;
43248;SDS011;29216;51.248;6.808;2024-02-15T00:59:15;11.95;;;5.70;;
43248;SDS011;29216;51.248;6.808;2024-02-15T01:01:41;10.50;;;5.68;;
43248;SDS011;29216;51.248;6.808;2024-02-15T01:04:07;10.00;;;5.32;;
43248;SDS011;29216;51.248;6.808;2024-02-15T01:06:33;11.30;;;5.10;;
43248;SDS011;29216;51.248;6.808;2024-02-15T01:08:59;12.27;;;5.53;;
43248;SDS011;29216;51.248;6.808;2024-02-15T01:11:29;13.43;;;5.35;;
43248;SDS011;29216;51.248;6.808;2024-02-15T01:13:57;17.00;;;6.43;;
43248;SDS011;29216;51.248;6.808;2024-02-15T01:16:23;14.27;;;7.07;;
43248;SDS011;29216;51.248;6.808;2024-02-15T01:18:49;12.48;;;5.78;;
43248;SDS011;29216;51.248;6.808;2024-02-15T01:21:16;14.38;;;4.78;;
43248;SDS011;29216;51.248;6.808;2024-02-15T01:23:42;12.18;;;5.70;;
43248;SDS011;29216;51.248;6.808;2024-02-15T01:26:09;12.52;;;5.57;;
43248;SDS011;29216;51.248;6.808;2024-02-15T01:28:37;17.35;;;5.40;;
43248;SDS011;29216;51.248;6.808;2024-02-15T01:31:03;11.55;;;5.70;;
43248;SDS011;29216;51.248;6.808;2024-02-15T01:33:31;9.45;;;5.07;;
43248;SDS011;29216;51.248;6.808;2024-02-15T01:35:57;11.75;;;5.80;;
43248;SDS011;29216;51.248;6.808;2024-02-15T01:38:23;13.98;;;5.82;;
43248;SDS011;29216;51.248;6.808;2024-02-15T01:40:49;8.73;;;5.30;;
43248;SDS011;29216;51.248;6.808;2024-02-15T01:43:15;8.50;;;5.75;;
43248;SDS011;29216;51.248;6.808;2024-02-15T01:45:41;9.70;;;5.60;;
43248;SDS011;29216;51.248;6.808;2024-02-15T01:48:07;9.10;;;5.47;;
43248;SDS011;29216;51.248;6.808;2024-02-15T01:50:35;12.13;;;5.43;;
43248;SDS011;29216;51.248;6.808;2024-02-15T01:53:02;12.40;;;6.47;;
43248;SDS011;29216;51.248;6.808;2024-02-15T01:55:29;11.50;;;6.38;;
43248;SDS011;29216;51.248;6.808;2024-02-15T01:57:55;13.35;;;7.65;;
43248;SDS011;29216;51.248;6.808;2024-02-15T02:00:21;9.90;;;5.78;;
43248;SDS011;29216;51.248;6.808;2024-02-15T02:02:49;10.93;;;6.13;;
43248;SDS011;29216;51.248;6.808;2024-02-15T02:05:15;8.52;;;5.80;;
43248;SDS011;29216;51.248;6.808;2024-02-15T02:07:41;7.93;;;5.93;;
43248;SDS011;29216;51.248;6.808;2024-02-15T02:10:07;11.73;;;6.25;;
43248;SDS011;29216;51.248;6.808;2024-02-15T02:12:36;11.68;;;6.47;;
43248;SDS011;29216;51.248;6.808;2024-02-15T02:15:04;11.60;;;5.50;;
43248;SDS011;29216;51.248;6.808;2024-02-15T02:17:31;12.88;;;5.63;;
43248;SDS011;29216;51.248;6.808;2024-02-15T02:19:59;13.63;;;6.07;;
43248;SDS011;29216;51.248;6.808;2024-02-15T02:22:24;11.23;;;5.45;;
43248;SDS011;29216;51.248;6.808;2024-02-15T02:27:18;11.40;;;5.20;;
43248;SDS011;29216;51.248;6.808;2024-02-15T02:29:45;10.65;;;6.63;;
43248;SDS011;29216;51.248;6.808;2024-02-15T02:32:11;11.45;;;5.28;;
43248;SDS011;29216;51.248;6.808;2024-02-15T02:34:38;11.15;;;5.63;;
43248;SDS011;29216;51.248;6.808;2024-02-15T02:37:05;10.80;;;5.40;;
43248;SDS011;29216;51.248;6.808;2024-02-15T02:39:32;11.75;;;5.35;;
43248;SDS011;29216;51.248;6.808;2024-02-15T02:41:58;11.48;;;5.22;;
43248;SDS011;29216;51.248;6.808;2024-02-15T02:44:24;7.95;;;5.18;;
43248;SDS011;29216;51.248;6.808;2024-02-15T02:46:50;9.68;;;4.85;;
43248;SDS011;29216;51.248;6.808;2024-02-15T02:49:16;14.35;;;5.40;;
43248;SDS011;29216;51.248;6.808;2024-02-15T02:51:42;13.23;;;5.72;;
43248;SDS011;29216;51.248;6.808;2024-02-15T02:54:09;8.63;;;5.50;;
43248;SDS011;29216;51.248;6.808;2024-02-15T02:56:36;12.90;;;5.40;;
43248;SDS011;29216;51.248;6.808;2024-02-15T02:59:02;13.63;;;5.70;;
43248;SDS011;29216;51.248;6.808;2024-02-15T03:01:28;10.73;;;6.45;;
43248;SDS011;29216;51.248;6.808;2024-02-15T03:03:55;13.70;;;5.93;;
43248;SDS011;29216;51.248;6.808;2024-02-15T03:06:22;11.63;;;6.47;;
43248;SDS011;29216;51.248;6.808;2024-02-15T03:08:50;13.15;;;6.43;;
43248;SDS011;29216;51.248;6.808;2024-02-15T03:11:19;9.18;;;5.88;;
43248;SDS011;29216;51.248;6.808;2024-02-15T03:13:45;9.90;;;5.72;;
43248;SDS011;29216;51.248;6.808;2024-02-15T03:16:11;10.05;;;5.78;;
43248;SDS011;29216;51.248;6.808;2024-02-15T03:18:37;10.85;;;6.30;;
43248;SDS011;29216;51.248;6.808;2024-02-15T03:21:03;8.35;;;5.82;;
43248;SDS011;29216;51.248;6.808;2024-02-15T03:23:29;10.02;;;5.97;;
43248;SDS011;29216;51.248;6.808;2024-02-15T03:25:58;9.13;;;6.43;;
43248;SDS011;29216;51.248;6.808;2024-02-15T03:28:24;10.30;;;6.20;;
43248;SDS011;29216;51.248;6.808;2024-02-15T03:30:50;17.00;;;8.85;;
43248;SDS011;29216;51.248;6.808;2024-02-15T03:33:17;8.02;;;6.15;;
43248;SDS011;29216;51.248;6.808;2024-02-15T03:35:43;10.88;;;6.40;;
43248;SDS011;29216;51.248;6.808;2024-02-15T03:38:09;9.50;;;6.55;;
43248;SDS011;29216;51.248;6.808;2024-02-15T03:40:37;16.77;;;7.97;;
43248;SDS011;29216;51.248;6.808;2024-02-15T03:43:06;12.40;;;6.45;;
43248;SDS011;29216;51.248;6.808;2024-02-15T03:45:33;10.65;;;6.32;;
43248;SDS011;29216;51.248;6.808;2024-02-15T03:47:59;18.27;;;6.63;;
43248;SDS011;29216;51.248;6.808;2024-02-15T03:50:25;12.52;;;6.43;;
43248;SDS011;29216;51.248;6.808;2024-02-15T03:52:51;10.10;;;6.00;;
43248;SDS011;29216;51.248;6.808;2024-02-15T03:55:17;8.68;;;5.60;;
43248;SDS011;29216;51.248;6.808;2024-02-15T03:57:43;8.50;;;6.03;;
43248;SDS011;29216;51.248;6.808;2024-02-15T04:00:11;8.52;;;5.32;;
43248;SDS011;29216;51.248;6.808;2024-02-15T04:02:39;10.13;;;5.65;;
43248;SDS011;29216;51.248;6.808;2024-02-15T04:05:08;9.27;;;4.93;;
43248;SDS011;29216;51.248;6.808;2024-02-15T04:07:36;10.93;;;5.60;;
43248;SDS011;29216;51.248;6.808;2024-02-15T04:10:03;10.73;;;5.45;;
43248;SDS011;29216;51.248;6.808;2024-02-15T04:12:29;8.00;;;5.03;;
43248;SDS011;29216;51.248;6.808;2024-02-15T04:14:56;9.27;;;5.63;;
43248;SDS011;29216;51.248;6.808;2024-02-15T04:17:29;10.45;;;5.78;;
43248;SDS011;29216;51.248;6.808;2024-02-15T04:19:57;10.40;;;4.88;;
43248;SDS011;29216;51.248;6.808;2024-02-15T04:22:23;7.85;;;4.60;;
43248;SDS011;29216;51.248;6.808;2024-02-15T04:24:50;10.48;;;5.22;;
43248;SDS011;29216;51.248;6.808;2024-02-15T04:27:15;8.45;;;4.90;;
43248;SDS011;29216;51.248;6.808;2024-02-15T04:29:45;6.50;;;4.68;;
43248;SDS011;29216;51.248;6.808;2024-02-15T04:32:12;8.23;;;4.38;;
43248;SDS011;29216;51.248;6.808;2024-02-15T04:34:38;7.85;;;4.15;;
43248;SDS011;29216;51.248;6.808;2024-02-15T04:37:04;8.65;;;4.68;;
43248;SDS011;29216;51.248;6.808;2024-02-15T04:39:34;8.32;;;4.50;;
43248;SDS011;29216;51.248;6.808;2024-02-15T04:42:01;7.78;;;5.05;;
43248;SDS011;29216;51.248;6.808;2024-02-15T04:44:27;7.28;;;4.18;;
43248;SDS011;29216;51.248;6.808;2024-02-15T04:46:53;6.75;;;4.45;;
43248;SDS011;29216;51.248;6.808;2024-02-15T04:49:19;7.00;;;4.40;;
43248;SDS011;29216;51.248;6.808;2024-02-15T04:51:46;11.20;;;5.45;;
43248;SDS011;29216;51.248;6.808;2024-02-15T04:54:13;8.65;;;4.15;;
43248;SDS011;29216;51.248;6.808;2024-02-15T04:56:39;6.45;;;3.80;;
43248;SDS011;29216;51.248;6.808;2024-02-15T04:59:06;7.63;;;3.60;;
43248;SDS011;29216;51.248;6.808;2024-02-15T05:01:34;5.97;;;3.70;;
43248;SDS011;29216;51.248;6.808;2024-02-15T05:04:00;6.70;;;3.92;;
43248;SDS011;29216;51.248;6.808;2024-02-15T05:06:31;7.88;;;4.40;;
43248;SDS011;29216;51.248;6.808;2024-02-15T05:08:57;7.95;;;4.25;;
43248;SDS011;29216;51.248;6.808;2024-02-15T05:11:24;9.45;;;3.92;;
43248;SDS011;29216;51.248;6.808;2024-02-15T05:13:50;7.38;;;3.55;;
43248;SDS011;29216;51.248;6.808;2024-02-15T05:16:17;6.63;;;4.03;;
43248;SDS011;29216;51.248;6.808;2024-02-15T05:18:43;6.75;;;4.05;;
43248;SDS011;29216;51.248;6.808;2024-02-15T05:21:10;8.13;;;3.75;;
43248;SDS011;29216;51.248;6.808;2024-02-15T05:23:36;7.82;;;3.80;;
43248;SDS011;29216;51.248;6.808;2024-02-15T05:26:04;8.25;;;4.00;;
43248;SDS011;29216;51.248;6.808;2024-02-15T05:28:30;9.57;;;4.22;;
43248;SDS011;29216;51.248;6.808;2024-02-15T05:33:36;7.63;;;3.60;;
43248;SDS011;29216;51.248;6.808;2024-02-15T05:36:05;6.38;;;3.83;;
43248;SDS011;29216;51.248;6.808;2024-02-15T05:38:33;8.27;;;4.05;;
43248;SDS011;29216;51.248;6.808;2024-02-15T05:40:59;9.18;;;4.40;;
43248;SDS011;29216;51.248;6.808;2024-02-15T05:43:26;8.23;;;4.05;;
43248;SDS011;29216;51.248;6.808;2024-02-15T05:45:51;10.10;;;4.05;;
43248;SDS011;29216;51.248;6.808;2024-02-15T05:48:17;6.93;;;3.88;;
43248;SDS011;29216;51.248;6.808;2024-02-15T05:50:44;9.30;;;4.30;;
43248;SDS011;29216;51.248;6.808;2024-02-15T05:53:11;10.10;;;4.70;;
43248;SDS011;29216;51.248;6.808;2024-02-15T05:55:37;7.55;;;4.53;;
43248;SDS011;29216;51.248;6.808;2024-02-15T05:58:05;8.52;;;4.93;;
43248;SDS011;29216;51.248;6.808;2024-02-15T06:00:34;10.48;;;4.40;;
43248;SDS011;29216;51.248;6.808;2024-02-15T06:03:00;8.48;;;4.05;;
43248;SDS011;29216;51.248;6.808;2024-02-15T06:05:27;7.30;;;4.15;;
43248;SDS011;29216;51.248;6.808;2024-02-15T06:07:53;7.82;;;3.92;;
43248;SDS011;29216;51.248;6.808;2024-02-15T06:10:19;6.40;;;4.10;;
43248;SDS011;29216;51.248;6.808;2024-02-15T06:12:45;10.18;;;4.32;;
43248;SDS011;29216;51.248;6.808;2024-02-15T06:15:11;6.10;;;4.00;;
43248;SDS011;29216;51.248;6.808;2024-02-15T06:17:40;6.85;;;4.10;;
43248;SDS011;29216;51.248;6.808;2024-02-15T06:20:09;8.65;;;4.07;;
43248;SDS011;29216;51.248;6.808;2024-02-15T06:22:37;7.28;;;3.97;;
43248;SDS011;29216;51.248;6.808;2024-02-15T06:25:03;8.52;;;4.72;;
43248;SDS011;29216;51.248;6.808;2024-02-15T06:27:30;6.20;;;4.50;;
43248;SDS011;29216;51.248;6.808;2024-02-15T06:29:57;10.23;;;5.68;;
43248;SDS011;29216;51.248;6.808;2024-02-15T06:32:42;11.70;;;4.40;;
43248;SDS011;29216;51.248;6.808;2024-02-15T06:35:27;10.57;;;4.47;;
43248;SDS011;29216;51.248;6.808;2024-02-15T06:38:25;8.43;;;4.20;;
43248;SDS011;29216;51.248;6.808;2024-02-15T06:41:10;9.45;;;4.50;;
43248;SDS011;29216;51.248;6.808;2024-02-15T06:43:36;7.90;;;4.20;;
43248;SDS011;29216;51.248;6.808;2024-02-15T06:46:02;6.60;;;4.00;;
43248;SDS011;29216;51.248;6.808;2024-02-15T06:48:28;8.68;;;4.03;;
43248;SDS011;29216;51.248;6.808;2024-02-15T06:50:55;12.07;;;4.60;;
43248;SDS011;29216;51.248;6.808;2024-02-15T06:53:22;8.18;;;4.18;;
43248;SDS011;29216;51.248;6.808;2024-02-15T06:55:48;11.48;;;4.90;;
43248;SDS011;29216;51.248;6.808;2024-02-15T06:58:14;9.63;;;3.88;;
43248;SDS011;29216;51.248;6.808;2024-02-15T07:00:41;11.70;;;4.18;;
43248;SDS011;29216;51.248;6.808;2024-02-15T07:03:08;9.63;;;4.50;;
43248;SDS011;29216;51.248;6.808;2024-02-15T07:05:34;8.60;;;4.28;;
43248;SDS011;29216;51.248;6.808;2024-02-15T07:08:00;13.35;;;4.53;;
43248;SDS011;29216;51.248;6.808;2024-02-15T07:10:27;8.85;;;4.20;;
43248;SDS011;29216;51.248;6.808;2024-02-15T07:12:53;11.60;;;4.45;;
43248;SDS011;29216;51.248;6.808;2024-02-15T07:15:19;9.38;;;4.57;;
43248;SDS011;29216;51.248;6.808;2024-02-15T07:17:45;12.10;;;4.40;;
43248;SDS011;29216;51.248;6.808;2024-02-15T07:20:11;11.85;;;4.50;;
43248;SDS011;29216;51.248;6.808;2024-02-15T07:22:43;8.93;;;4.93;;
43248;SDS011;29216;51.248;6.808;2024-02-15T07:25:10;14.25;;;4.40;;
43248;SDS011;29216;51.248;6.808;2024-02-15T07:27:36;13.32;;;4.72;;
43248;SDS011;29216;51.248;6.808;2024-02-15T07:30:03;12.05;;;4.60;;
43248;SDS011;29216;51.248;6.808;2024-02-15T07:32:31;10.52;;;4.32;;
43248;SDS011;29216;51.248;6.808;2024-02-15T07:35:00;12.05;;;5.03;;
43248;SDS011;29216;51.248;6.808;2024-02-15T07:37:26;6.50;;;3.88;;
43248;SDS011;29216;51.248;6.808;2024-02-15T07:39:52;8.98;;;4.25;;
43248;SDS011;29216;51.248;6.808;2024-02-15T07:42:18;11.13;;;5.07;;
43248;SDS011;29216;51.248;6.808;2024-02-15T07:44:44;11.55;;;4.20;;
43248;SDS011;29216;51.248;6.808;2024-02-15T07:47:10;10.10;;;4.35;;
43248;SDS011;29216;51.248;6.808;2024-02-15T07:49:36;13.50;;;4.55;;
43248;SDS011;29216;51.248;6.808;2024-02-15T07:52:02;12.70;;;4.40;;
43248;SDS011;29216;51.248;6.808;2024-02-15T07:54:29;14.25;;;4.68;;
43248;SDS011;29216;51.248;6.808;2024-02-15T07:56:58;11.32;;;4.47;;
43248;SDS011;29216;51.248;6.808;2024-02-15T07:59:24;11.38;;;4.60;;
43248;SDS011;29216;51.248;6.808;2024-02-15T08:01:50;12.20;;;4.60;;
43248;SDS011;29216;51.248;6.808;2024-02-15T08:04:16;13.10;;;4.70;;
43248;SDS011;29216;51.248;6.808;2024-02-15T08:06:43;7.15;;;4.38;;
43248;SDS011;29216;51.248;6.808;2024-02-15T08:09:09;9.05;;;4.28;;
43248;SDS011;29216;51.248;6.808;2024-02-15T08:11:43;10.68;;;4.38;;
43248;SDS011;29216;51.248;6.808;2024-02-15T08:14:09;10.52;;;4.30;;
43248;SDS011;29216;51.248;6.808;2024-02-15T08:16:36;13.07;;;4.43;;
43248;SDS011;29216;51.248;6.808;2024-02-15T08:19:02;9.20;;;4.35;;
43248;SDS011;29216;51.248;6.808;2024-02-15T08:21:30;10.70;;;4.32;;
43248;SDS011;29216;51.248;6.808;2024-02-15T08:24:03;12.73;;;4.43;;
43248;SDS011;29216;51.248;6.808;2024-02-15T08:26:37;13.10;;;4.53;;
43248;SDS011;29216;51.248;6.808;2024-02-15T08:29:03;11.52;;;5.00;;
43248;SDS011;29216;51.248;6.808;2024-02-15T08:31:31;11.20;;;4.35;;
43248;SDS011;29216;51.248;6.808;2024-02-15T08:33:57;13.07;;;5.40;;
43248;SDS011;29216;51.248;6.808;2024-02-15T08:36:23;9.43;;;4.88;;
43248;SDS011;29216;51.248;6.808;2024-02-15T08:38:49;13.57;;;5.40;;
43248;SDS011;29216;51.248;6.808;2024-02-15T08:41:16;12.10;;;5.20;;
43248;SDS011;29216;51.248;6.808;2024-02-15T08:43:46;9.63;;;5.30;;
43248;SDS011;29216;51.248;6.808;2024-02-15T08:46:15;13.65;;;4.85;;
43248;SDS011;29216;51.248;6.808;2024-02-15T08:48:41;10.43;;;4.60;;
43248;SDS011;29216;51.248;6.808;2024-02-15T08:51:08;12.77;;;4.60;;
43248;SDS011;29216;51.248;6.808;2024-02-15T08:53:34;9.30;;;4.72;;
43248;SDS011;29216;51.248;6.808;2024-02-15T08:56:04;14.65;;;4.80;;
43248;SDS011;29216;51.248;6.808;2024-02-15T08:58:30;12.77;;;4.47;;
43248;SDS011;29216;51.248;6.808;2024-02-15T09:00:56;13.85;;;4.68;;
43248;SDS011;29216;51.248;6.808;2024-02-15T09:03:23;8.13;;;4.15;;
43248;SDS011;29216;51.248;6.808;2024-02-15T09:05:49;18.88;;;6.38;;
43248;SDS011;29216;51.248;6.808;2024-02-15T09:08:15;12.60;;;5.22;;
43248;SDS011;29216;51.248;6.808;2024-02-15T09:10:45;11.73;;;4.43;;
43248;SDS011;29216;51.248;6.808;2024-02-15T09:13:11;7.35;;;4.10;;
43248;SDS011;29216;51.248;6.808;2024-02-15T09:15:37;12.48;;;4.57;;
43248;SDS011;29216;51.248;6.808;2024-02-15T09:18:04;12.23;;;4.43;;
43248;SDS011;29216;51.248;6.808;2024-02-15T09:20:30;7.95;;;4.22;;
43248;SDS011;29216;51.248;6.808;2024-02-15T09:22:57;12.88;;;5.18;;
43248;SDS011;29216;51.248;6.808;2024-02-15T09:25:23;11.10;;;4.00;;
43248;SDS011;29216;51.248;6.808;2024-02-15T09:27:49;10.70;;;4.55;;
43248;SDS011;29216;51.248;6.808;2024-02-15T09:30:16;9.73;;;4.32;;
43248;SDS011;29216;51.248;6.808;2024-02-15T09:32:42;10.23;;;4.10;;
43248;SDS011;29216;51.248;6.808;2024-02-15T09:35:09;10.10;;;4.40;;
43248;SDS011;29216;51.248;6.808;2024-02-15T09:37:37;8.75;;;4.65;;
43248;SDS011;29216;51.248;6.808;2024-02-15T09:40:13;8.40;;;4.15;;
43248;SDS011;29216;51.248;6.808;2024-02-15T09:42:40;13.63;;;4.80;;
43248;SDS011;29216;51.248;6.808;2024-02-15T09:45:07;9.70;;;3.75;;
43248;SDS011;29216;51.248;6.808;2024-02-15T09:47:36;12.10;;;4.10;;
43248;SDS011;29216;51.248;6.808;2024-02-15T09:50:02;9.40;;;4.03;;
43248;SDS011;29216;51.248;6.808;2024-02-15T09:52:31;9.95;;;3.85;;
43248;SDS011;29216;51.248;6.808;2024-02-15T09:55:00;7.35;;;3.42;;
43248;SDS011;29216;51.248;6.808;2024-02-15T09:57:28;9.00;;;3.90;;
43248;SDS011;29216;51.248;6.808;2024-02-15T09:59:56;9.63;;;3.83;;
43248;SDS011;29216;51.248;6.808;2024-02-15T10:02:22;10.73;;;3.78;;
43248;SDS011;29216;51.248;6.808;2024-02-15T10:04:49;11.27;;;3.63;;
43248;SDS011;29216;51.248;6.808;2024-02-15T10:07:15;8.98;;;3.78;;
43248;SDS011;29216;51.248;6.808;2024-02-15T10:09:43;13.20;;;4.13;;
43248;SDS011;29216;51.248;6.808;2024-02-15T10:12:09;9.95;;;3.83;;
43248;SDS011;29216;51.248;6.808;2024-02-15T10:14:35;13.93;;;4.60;;
43248;SDS011;29216;51.248;6.808;2024-02-15T10:17:06;6.30;;;3.25;;
43248;SDS011;29216;51.248;6.808;2024-02-15T10:19:36;8.50;;;3.60;;
43248;SDS011;29216;51.248;6.808;2024-02-15T10:22:06;8.52;;;3.65;;
43248;SDS011;29216;51.248;6.808;2024-02-15T10:24:32;10.60;;;4.50;;
43248;SDS011;29216;51.248;6.808;2024-02-15T10:27:01;9.88;;;3.42;;
43248;SDS011;29216;51.248;6.808;2024-02-15T10:29:29;8.02;;;3.40;;
43248;SDS011;29216;51.248;6.808;2024-02-15T10:31:56;10.82;;;3.47;;
43248;SDS011;29216;51.248;6.808;2024-02-15T10:34:23;10.20;;;3.80;;
43248;SDS011;29216;51.248;6.808;2024-02-15T10:36:52;11.18;;;3.13;;
43248;SDS011;29216;51.248;6.808;2024-02-15T10:39:19;9.13;;;3.42;;
43248;SDS011;29216;51.248;6.808;2024-02-15T10:44:21;7.72;;;3.53;;
43248;SDS011;29216;51.248;6.808;2024-02-15T10:46:47;7.25;;;3.28;;
43248;SDS011;29216;51.248;6.808;2024-02-15T10:49:16;8.75;;;3.53;;
43248;SDS011;29216;51.248;6.808;2024-02-15T10:51:43;6.47;;;2.92;;
43248;SDS011;29216;51.248;6.808;2024-02-15T10:54:11;8.27;;;2.67;;
43248;SDS011;29216;51.248;6.808;2024-02-15T10:56:42;15.57;;;4.13;;
43248;SDS011;29216;51.248;6.808;2024-02-15T10:59:20;11.48;;;3.78;;
43248;SDS011;29216;51.248;6.808;2024-02-15T11:01:51;8.90;;;3.45;;
43248;SDS011;29216;51.248;6.808;2024-02-15T11:04:20;7.28;;;3.17;;
43248;SDS011;29216;51.248;6.808;2024-02-15T11:06:47;6.32;;;3.20;;
43248;SDS011;29216;51.248;6.808;2024-02-15T11:09:15;6.25;;;2.90;;
43248;SDS011;29216;51.248;6.808;2024-02-15T11:11:41;8.88;;;3.03;;
43248;SDS011;29216;51.248;6.808;2024-02-15T11:14:27;7.20;;;3.20;;
43248;SDS011;29216;51.248;6.808;2024-02-15T11:16:54;12.27;;;3.80;;
43248;SDS011;29216;51.248;6.808;2024-02-15T11:20:03;10.40;;;3.05;;
43248;SDS011;29216;51.248;6.808;2024-02-15T11:22:14;6.60;;;2.55;;
43248;SDS011;29216;51.248;6.808;2024-02-15T11:24:50;7.05;;;2.90;;
43248;SDS011;29216;51.248;6.808;2024-02-15T11:27:29;7.70;;;3.28;;
43248;SDS011;29216;51.248;6.808;2024-02-15T11:29:59;6.53;;;2.97;;
43248;SDS011;29216;51.248;6.808;2024-02-15T11:43:09;8.65;;;2.80;;
43248;SDS011;29216;51.248;6.808;2024-02-15T11:45:36;6.97;;;2.67;;
43248;SDS011;29216;51.248;6.808;2024-02-15T11:48:09;5.13;;;2.77;;
43248;SDS011;29216;51.248;6.808;2024-02-15T11:50:36;6.70;;;2.92;;
43248;SDS011;29216;51.248;6.808;2024-02-15T11:53:02;7.18;;;2.70;;
43248;SDS011;29216;51.248;6.808;2024-02-15T11:55:35;6.53;;;2.63;;
43248;SDS011;29216;51.248;6.808;2024-02-15T11:58:03;12.38;;;2.67;;
43248;SDS011;29216;51.248;6.808;2024-02-15T12:00:32;7.97;;;3.20;;
43248;SDS011;29216;51.248;6.808;2024-02-15T12:03:17;6.95;;;2.83;;
43248;SDS011;29216;51.248;6.808;2024-02-15T12:06:02;7.45;;;2.88;;
43248;SDS011;29216;51.248;6.808;2024-02-15T12:08:47;5.90;;;2.63;;
43248;SDS011;29216;51.248;6.808;2024-02-15T12:11:32;8.10;;;3.28;;
43248;SDS011;29216;51.248;6.808;2024-02-15T12:14:17;6.65;;;2.60;;
43248;SDS011;29216;51.248;6.808;2024-02-15T12:17:12;6.95;;;2.58;;
43248;SDS011;29216;51.248;6.808;2024-02-15T12:19:59;10.38;;;2.70;;
43248;SDS011;29216;51.248;6.808;2024-02-15T12:22:31;6.90;;;2.60;;
43248;SDS011;29216;51.248;6.808;2024-02-15T12:24:59;5.65;;;2.53;;
43248;SDS011;29216;51.248;6.808;2024-02-15T12:27:25;4.38;;;2.70;;
43248;SDS011;29216;51.248;6.808;2024-02-15T12:30:01;10.00;;;2.75;;
43248;SDS011;29216;51.248;6.808;2024-02-15T12:32:30;6.85;;;2.72;;
43248;SDS011;29216;51.248;6.808;2024-02-15T12:35:10;8.05;;;2.85;;
43248;SDS011;29216;51.248;6.808;2024-02-15T12:37:44;8.63;;;2.42;;
43248;SDS011;29216;51.248;6.808;2024-02-15T12:40:15;7.93;;;2.58;;
43248;SDS011;29216;51.248;6.808;2024-02-15T12:42:45;5.10;;;2.60;;
43248;SDS011;29216;51.248;6.808;2024-02-15T12:45:15;7.73;;;2.83;;
43248;SDS011;29216;51.248;6.808;2024-02-15T12:47:46;8.75;;;3.10;;
43248;SDS011;29216;51.248;6.808;2024-02-15T12:50:15;5.53;;;2.53;;
43248;SDS011;29216;51.248;6.808;2024-02-15T12:52:42;5.18;;;2.10;;
43248;SDS011;29216;51.248;6.808;2024-02-15T12:57:41;6.15;;;2.30;;
43248;SDS011;29216;51.248;6.808;2024-02-15T13:00:10;7.25;;;2.55;;
43248;SDS011;29216;51.248;6.808;2024-02-15T13:02:42;6.72;;;2.70;;
43248;SDS011;29216;51.248;6.808;2024-02-15T13:05:08;6.13;;;2.45;;
43248;SDS011;29216;51.248;6.808;2024-02-15T13:07:35;7.00;;;2.83;;
43248;SDS011;29216;51.248;6.808;2024-02-15T13:10:02;6.43;;;2.50;;
43248;SDS011;29216;51.248;6.808;2024-02-15T13:12:31;5.05;;;2.45;;
43248;SDS011;29216;51.248;6.808;2024-02-15T13:14:59;9.13;;;2.50;;
43248;SDS011;29216;51.248;6.808;2024-02-15T13:17:26;6.82;;;2.67;;
43248;SDS011;29216;51.248;6.808;2024-02-15T13:19:52;5.65;;;2.40;;
43248;SDS011;29216;51.248;6.808;2024-02-15T13:22:27;5.78;;;2.45;;
43248;SDS011;29216;51.248;6.808;2024-02-15T13:24:53;5.80;;;2.35;;
43248;SDS011;29216;51.248;6.808;2024-02-15T13:27:20;7.28;;;2.70;;
43248;SDS011;29216;51.248;6.808;2024-02-15T13:29:48;6.03;;;2.50;;
43248;SDS011;29216;51.248;6.808;2024-02-15T13:32:14;5.82;;;2.35;;
43248;SDS011;29216;51.248;6.808;2024-02-15T13:34:42;3.97;;;2.10;;
43248;SDS011;29216;51.248;6.808;2024-02-15T13:37:10;6.05;;;2.55;;
43248;SDS011;29216;51.248;6.808;2024-02-15T13:39:38;4.30;;;2.30;;
43248;SDS011;29216;51.248;6.808;2024-02-15T13:42:08;4.72;;;2.42;;
43248;SDS011;29216;51.248;6.808;2024-02-15T13:44:34;6.60;;;2.72;;
43248;SDS011;29216;51.248;6.808;2024-02-15T13:47:00;9.98;;;2.60;;
43248;SDS011;29216;51.248;6.808;2024-02-15T13:49:26;4.10;;;2.30;;
43248;SDS011;29216;51.248;6.808;2024-02-15T13:51:52;7.63;;;2.65;;
43248;SDS011;29216;51.248;6.808;2024-02-15T13:54:18;7.30;;;2.40;;
43248;SDS011;29216;51.248;6.808;2024-02-15T13:56:44;3.63;;;2.50;;
43248;SDS011;29216;51.248;6.808;2024-02-15T13:59:11;5.22;;;2.30;;
43248;SDS011;29216;51.248;6.808;2024-02-15T14:01:37;6.43;;;2.65;;
43248;SDS011;29216;51.248;6.808;2024-02-15T14:04:10;3.33;;;2.55;;
43248;SDS011;29216;51.248;6.808;2024-02-15T14:06:36;7.72;;;2.40;;
43248;SDS011;29216;51.248;6.808;2024-02-15T14:09:05;7.28;;;2.55;;
43248;SDS011;29216;51.248;6.808;2024-02-15T14:11:31;6.43;;;2.38;;
43248;SDS011;29216;51.248;6.808;2024-02-15T14:13:57;5.68;;;2.40;;
43248;SDS011;29216;51.248;6.808;2024-02-15T14:16:24;9.27;;;2.50;;
43248;SDS011;29216;51.248;6.808;2024-02-15T14:18:50;5.63;;;2.15;;
43248;SDS011;29216;51.248;6.808;2024-02-15T14:21:16;7.90;;;2.47;;
43248;SDS011;29216;51.248;6.808;2024-02-15T14:23:43;6.50;;;2.60;;
43248;SDS011;29216;51.248;6.808;2024-02-15T14:26:09;4.50;;;2.20;;
43248;SDS011;29216;51.248;6.808;2024-02-15T14:28:35;5.18;;;2.40;;
43248;SDS011;29216;51.248;6.808;2024-02-15T14:31:04;5.30;;;2.70;;
43248;SDS011;29216;51.248;6.808;2024-02-15T14:33:49;6.15;;;2.85;;
43248;SDS011;29216;51.248;6.808;2024-02-15T14:36:16;4.05;;;2.42;;
43248;SDS011;29216;51.248;6.808;2024-02-15T14:38:42;7.35;;;2.42;;
43248;SDS011;29216;51.248;6.808;2024-02-15T14:41:09;8.32;;;2.30;;
43248;SDS011;29216;51.248;6.808;2024-02-15T14:43:36;5.85;;;2.47;;
43248;SDS011;29216;51.248;6.808;2024-02-15T14:46:03;5.22;;;2.30;;
43248;SDS011;29216;51.248;6.808;2024-02-15T14:48:30;9.48;;;2.47;;
43248;SDS011;29216;51.248;6.808;2024-02-15T14:50:57;8.57;;;2.78;;
43248;SDS011;29216;51.248;6.808;2024-02-15T14:53:24;4.10;;;2.20;;
43248;SDS011;29216;51.248;6.808;2024-02-15T14:55:50;11.82;;;2.67;;
43248;SDS011;29216;51.248;6.808;2024-02-15T14:58:16;6.80;;;2.42;;
43248;SDS011;29216;51.248;6.808;2024-02-15T15:00:42;8.45;;;2.50;;
43248;SDS011;29216;51.248;6.808;2024-02-15T15:03:09;7.55;;;2.20;;
43248;SDS011;29216;51.248;6.808;2024-02-15T15:05:39;7.30;;;2.30;;
43248;SDS011;29216;51.248;6.808;2024-02-15T15:08:24;5.28;;;2.47;;